PWSweather.com
Personal Weather Stations
Station Observations
UXOLA
Alcoy, AlcoyES

AlcoyAlcoyES

Lat: 38.70299, Lon: -0.48184

Elevation: 1935

Station Type: PCE FWS-20,

http://www.fiestasalcoy.xyz

High Low Average
Temperature 59.2°F15.1°C 42.6°F5.9°C 51.0°F10.6°C
Dew Point 40.5°F4.7°C 28.7°F-1.8°C 33.4°F0.8°C
Winds 9.8 mph 15.8 kmh Calm Calm 4.0 mph SW6.4 kmh SW
Wind Gusts 15.9 mph25.6 kmh 2.2 mph3.5 kmh 8.0 mph12.9 kmh
Humidity 71% 33% 52%
Pressure 29.68 in1005.1 mb 29.60 in1002.4 mb -
Precipitation 0.00 in0.0 mm - -
Hour Temp Dew Point Humidity Winds Wind Gusts Pressure Precip Precip Rate Daily Precip Total
12:00 AM 50.5°F10.3°C 33.6°F0.9°C 52% 2.2 mph WNW3.5 kmh WNW 6.0 mph9.7 kmh 29.66 in1004.4 mb 0.00 in0.0 mm 0.00 in0.0 mm 0.00 in0.0 mm
12:15 AM 50.4°F10.2°C 33.4°F0.8°C 52% 1.6 mph WNW2.6 kmh WNW 3.8 mph6.1 kmh 29.66 in1004.4 mb 0.00 in0.0 mm 0.00 in0.0 mm 0.00 in0.0 mm
12:30 AM 50.2°F10.1°C 32.8°F0.4°C 51% 0.7 mph WNW1.1 kmh WNW 6.9 mph11.1 kmh 29.67 in1004.7 mb 0.00 in0.0 mm 0.00 in0.0 mm 0.00 in0.0 mm
12:45 AM 50.0°F10.0°C 32.6°F0.3°C 51% 0.7 mph N1.1 kmh N 3.1 mph5.0 kmh 29.66 in1004.4 mb 0.00 in0.0 mm 0.00 in0.0 mm 0.00 in0.0 mm
01:00 AM 49.8°F9.9°C 31.9°F-0.1°C 50% 2.2 mph WNW3.5 kmh WNW 5.4 mph8.7 kmh 29.66 in1004.4 mb 0.00 in0.0 mm 0.00 in0.0 mm 0.00 in0.0 mm
01:15 AM 49.6°F9.8°C 31.8°F-0.1°C 50% 4.5 mph WNW7.2 kmh WNW 6.0 mph9.7 kmh 29.65 in1004.1 mb 0.00 in0.0 mm 0.00 in0.0 mm 0.00 in0.0 mm
01:30 AM 49.3°F9.6°C 31.4°F-0.3°C 50% 3.8 mph NW6.1 kmh NW 6.9 mph11.1 kmh 29.65 in1004.1 mb 0.00 in0.0 mm 0.00 in0.0 mm 0.00 in0.0 mm
01:45 AM 49.1°F9.5°C 31.3°F-0.4°C 50% 3.8 mph W6.1 kmh W 6.0 mph9.7 kmh 29.65 in1004.1 mb 0.00 in0.0 mm 0.00 in0.0 mm 0.00 in0.0 mm
02:00 AM 48.6°F9.2°C 30.8°F-0.7°C 50% 1.6 mph SE2.6 kmh SE 4.5 mph7.2 kmh 29.65 in1004.1 mb 0.00 in0.0 mm 0.00 in0.0 mm 0.00 in0.0 mm
02:15 AM 48.0°F8.9°C 30.3°F-0.9°C 50% 3.8 mph NW6.1 kmh NW 13.6 mph21.9 kmh 29.64 in1003.7 mb 0.00 in0.0 mm 0.00 in0.0 mm 0.00 in0.0 mm
02:30 AM 47.5°F8.6°C 30.3°F-0.9°C 51% 3.8 mph WNW6.1 kmh WNW 8.3 mph13.4 kmh 29.65 in1004.1 mb 0.00 in0.0 mm 0.00 in0.0 mm 0.00 in0.0 mm
02:45 AM 46.9°F8.3°C 29.8°F-1.2°C 51% 2.2 mph W3.5 kmh W 10.7 mph17.2 kmh 29.64 in1003.7 mb 0.00 in0.0 mm 0.00 in0.0 mm 0.00 in0.0 mm
03:00 AM 46.8°F8.2°C 29.6°F-1.3°C 51% 5.4 mph WNW8.7 kmh WNW 7.6 mph12.2 kmh 29.64 in1003.7 mb 0.00 in0.0 mm 0.00 in0.0 mm 0.00 in0.0 mm
03:15 AM 46.6°F8.1°C 29.4°F-1.4°C 51% 3.8 mph W6.1 kmh W 10.7 mph17.2 kmh 29.64 in1003.7 mb 0.00 in0.0 mm 0.00 in0.0 mm 0.00 in0.0 mm
03:30 AM 46.2°F7.9°C 29.6°F-1.3°C 52% 3.8 mph NNW6.1 kmh NNW 8.3 mph13.4 kmh 29.64 in1003.7 mb 0.00 in0.0 mm 0.00 in0.0 mm 0.00 in0.0 mm
03:45 AM 46.0°F7.8°C 29.4°F-1.4°C 52% 3.1 mph N5.0 kmh N 6.9 mph11.1 kmh 29.64 in1003.7 mb 0.00 in0.0 mm 0.00 in0.0 mm 0.00 in0.0 mm
04:00 AM 45.5°F7.5°C 29.8°F-1.2°C 54% 8.3 mph NW13.4 kmh NW 13.0 mph20.9 kmh 29.64 in1003.7 mb 0.00 in0.0 mm 0.00 in0.0 mm 0.00 in0.0 mm
04:15 AM 45.3°F7.4°C 29.7°F-1.3°C 54% 6.9 mph NW11.1 kmh NW 9.2 mph14.8 kmh 29.63 in1003.4 mb 0.00 in0.0 mm 0.00 in0.0 mm 0.00 in0.0 mm
04:30 AM 45.0°F7.2°C 29.3°F-1.5°C 54% 2.2 mph NW3.5 kmh NW 4.5 mph7.2 kmh 29.63 in1003.4 mb 0.00 in0.0 mm 0.00 in0.0 mm 0.00 in0.0 mm
04:45 AM 44.1°F6.7°C 28.9°F-1.7°C 55% 4.5 mph NW7.2 kmh NW 6.9 mph11.1 kmh 29.62 in1003.0 mb 0.00 in0.0 mm 0.00 in0.0 mm 0.00 in0.0 mm
05:00 AM 44.8°F7.1°C 29.6°F-1.3°C 55% 6.0 mph NNW9.7 kmh NNW 7.6 mph12.2 kmh 29.62 in1003.0 mb 0.00 in0.0 mm 0.00 in0.0 mm 0.00 in0.0 mm
05:15 AM 45.1°F7.3°C 29.0°F-1.7°C 53% 3.8 mph NW6.1 kmh NW 9.8 mph15.8 kmh 29.62 in1003.0 mb 0.00 in0.0 mm 0.00 in0.0 mm 0.00 in0.0 mm
05:30 AM 45.1°F7.3°C 29.0°F-1.7°C 53% 7.6 mph NW12.2 kmh NW 11.4 mph18.3 kmh 29.62 in1003.0 mb 0.00 in0.0 mm 0.00 in0.0 mm 0.00 in0.0 mm
05:45 AM 45.1°F7.3°C 29.0°F-1.7°C 53% 2.2 mph NNW3.5 kmh NNW 11.4 mph18.3 kmh 29.62 in1003.0 mb 0.00 in0.0 mm 0.00 in0.0 mm 0.00 in0.0 mm
06:00 AM 43.9°F6.6°C 30.9°F-0.6°C 60% 0.7 mph SE1.1 kmh SE 3.8 mph6.1 kmh 29.63 in1003.4 mb 0.00 in0.0 mm 0.00 in0.0 mm 0.00 in0.0 mm
06:15 AM 43.2°F6.2°C 30.6°F-0.8°C 61% Calm Calm 2.2 mph3.5 kmh 29.64 in1003.7 mb 0.00 in0.0 mm 0.00 in0.0 mm 0.00 in0.0 mm
06:30 AM 43.0°F6.1°C 30.5°F-0.8°C 61% 1.6 mph NW2.6 kmh NW 9.8 mph15.8 kmh 29.64 in1003.7 mb 0.00 in0.0 mm 0.00 in0.0 mm 0.00 in0.0 mm
06:45 AM 43.2°F6.2°C 30.6°F-0.8°C 61% 0.7 mph NW1.1 kmh NW 7.6 mph12.2 kmh 29.65 in1004.1 mb 0.00 in0.0 mm 0.00 in0.0 mm 0.00 in0.0 mm
07:00 AM 42.6°F5.9°C 30.5°F-0.8°C 62% 3.1 mph WSW5.0 kmh WSW 4.5 mph7.2 kmh 29.65 in1004.1 mb 0.00 in0.0 mm 0.00 in0.0 mm 0.00 in0.0 mm
07:15 AM 43.5°F6.4°C 31.4°F-0.3°C 62% 0.7 mph W1.1 kmh W 3.8 mph6.1 kmh 29.65 in1004.1 mb 0.00 in0.0 mm 0.00 in0.0 mm 0.00 in0.0 mm
07:30 AM 44.4°F6.9°C 31.0°F-0.6°C 59% 0.7 mph WSW1.1 kmh WSW 3.8 mph6.1 kmh 29.65 in1004.1 mb 0.00 in0.0 mm 0.00 in0.0 mm 0.00 in0.0 mm
07:45 AM 45.3°F7.4°C 31.4°F-0.3°C 58% 0.7 mph W1.1 kmh W 3.1 mph5.0 kmh 29.65 in1004.1 mb 0.00 in0.0 mm 0.00 in0.0 mm 0.00 in0.0 mm
08:00 AM 46.8°F8.2°C 31.9°F-0.1°C 56% Calm Calm 2.2 mph3.5 kmh 29.65 in1004.1 mb 0.00 in0.0 mm 0.00 in0.0 mm 0.00 in0.0 mm
08:15 AM 48.0°F8.9°C 32.2°F0.1°C 54% 1.6 mph SSE2.6 kmh SSE 4.5 mph7.2 kmh 29.65 in1004.1 mb 0.00 in0.0 mm 0.00 in0.0 mm 0.00 in0.0 mm
08:30 AM 47.8°F8.8°C 32.0°F0.0°C 54% 2.2 mph W3.5 kmh W 4.5 mph7.2 kmh 29.65 in1004.1 mb 0.00 in0.0 mm 0.00 in0.0 mm 0.00 in0.0 mm
08:45 AM 48.7°F9.3°C 32.8°F0.4°C 54% Calm Calm 3.1 mph5.0 kmh 29.65 in1004.1 mb 0.00 in0.0 mm 0.00 in0.0 mm 0.00 in0.0 mm
09:00 AM 50.4°F10.2°C 34.4°F1.3°C 54% 3.1 mph ESE5.0 kmh ESE 6.0 mph9.7 kmh 29.65 in1004.1 mb 0.00 in0.0 mm 0.00 in0.0 mm 0.00 in0.0 mm
09:15 AM 51.1°F10.6°C 35.0°F1.7°C 54% 6.0 mph SE9.7 kmh SE 8.3 mph13.4 kmh 29.65 in1004.1 mb 0.00 in0.0 mm 0.00 in0.0 mm 0.00 in0.0 mm
09:30 AM 51.6°F10.9°C 35.1°F1.7°C 53% 6.9 mph ESE11.1 kmh ESE 9.2 mph14.8 kmh 29.65 in1004.1 mb 0.00 in0.0 mm 0.00 in0.0 mm 0.00 in0.0 mm
09:45 AM 52.3°F11.3°C 35.7°F2.1°C 53% 2.2 mph SE3.5 kmh SE 8.3 mph13.4 kmh 29.65 in1004.1 mb 0.00 in0.0 mm 0.00 in0.0 mm 0.00 in0.0 mm
10:00 AM 52.7°F11.5°C 35.1°F1.7°C 51% 7.6 mph SE12.2 kmh SE 9.2 mph14.8 kmh 29.66 in1004.4 mb 0.00 in0.0 mm 0.00 in0.0 mm 0.00 in0.0 mm
10:15 AM 53.1°F11.7°C 33.4°F0.8°C 47% 7.6 mph ESE12.2 kmh ESE 10.7 mph17.2 kmh 29.65 in1004.1 mb 0.00 in0.0 mm 0.00 in0.0 mm 0.00 in0.0 mm
10:30 AM 53.6°F12.0°C 32.2°F0.1°C 44% 6.0 mph ESE9.7 kmh ESE 9.8 mph15.8 kmh 29.65 in1004.1 mb 0.00 in0.0 mm 0.00 in0.0 mm 0.00 in0.0 mm
10:45 AM 54.3°F12.4°C 32.3°F0.2°C 43% 7.6 mph SE12.2 kmh SE 13.6 mph21.9 kmh 29.65 in1004.1 mb 0.00 in0.0 mm 0.00 in0.0 mm 0.00 in0.0 mm
11:00 AM 55.2°F12.9°C 33.1°F0.6°C 43% 4.5 mph ESE7.2 kmh ESE 10.7 mph17.2 kmh 29.65 in1004.1 mb 0.00 in0.0 mm 0.00 in0.0 mm 0.00 in0.0 mm
11:15 AM 54.7°F12.6°C 31.5°F-0.3°C 41% 5.4 mph SE8.7 kmh SE 9.2 mph14.8 kmh 29.65 in1004.1 mb 0.00 in0.0 mm 0.00 in0.0 mm 0.00 in0.0 mm
11:30 AM 54.7°F12.6°C 31.5°F-0.3°C 41% 6.0 mph ESE9.7 kmh ESE 11.4 mph18.3 kmh 29.65 in1004.1 mb 0.00 in0.0 mm 0.00 in0.0 mm 0.00 in0.0 mm
11:45 AM 55.8°F13.2°C 31.8°F-0.1°C 40% 4.5 mph SE7.2 kmh SE 12.1 mph19.5 kmh 29.64 in1003.7 mb 0.00 in0.0 mm 0.00 in0.0 mm 0.00 in0.0 mm
12:00 PM 56.3°F13.5°C 31.7°F-0.2°C 39% 4.5 mph ESE7.2 kmh ESE 9.2 mph14.8 kmh 29.64 in1003.7 mb 0.00 in0.0 mm 0.00 in0.0 mm 0.00 in0.0 mm
12:15 PM 56.3°F13.5°C 31.7°F-0.2°C 39% 5.4 mph ESE8.7 kmh ESE 11.4 mph18.3 kmh 29.64 in1003.7 mb 0.00 in0.0 mm 0.00 in0.0 mm 0.00 in0.0 mm
12:30 PM 56.5°F13.6°C 29.9°F-1.2°C 36% 5.4 mph ESE8.7 kmh ESE 9.8 mph15.8 kmh 29.64 in1003.7 mb 0.00 in0.0 mm 0.00 in0.0 mm 0.00 in0.0 mm
12:45 PM 57.4°F14.1°C 30.7°F-0.7°C 36% 3.8 mph SE6.1 kmh SE 10.7 mph17.2 kmh 29.64 in1003.7 mb 0.00 in0.0 mm 0.00 in0.0 mm 0.00 in0.0 mm
01:00 PM 57.0°F13.9°C 29.7°F-1.3°C 35% 1.6 mph SE2.6 kmh SE 11.4 mph18.3 kmh 29.63 in1003.4 mb 0.00 in0.0 mm 0.00 in0.0 mm 0.00 in0.0 mm
01:15 PM 57.9°F14.4°C 29.7°F-1.3°C 34% 3.1 mph SE5.0 kmh SE 10.7 mph17.2 kmh 29.63 in1003.4 mb 0.00 in0.0 mm 0.00 in0.0 mm 0.00 in0.0 mm
01:30 PM 57.6°F14.2°C 29.4°F-1.4°C 34% 7.6 mph SE12.2 kmh SE 12.1 mph19.5 kmh 29.63 in1003.4 mb 0.00 in0.0 mm 0.00 in0.0 mm 0.00 in0.0 mm
01:45 PM 57.6°F14.2°C 28.7°F-1.8°C 33% 2.2 mph SE3.5 kmh SE 10.7 mph17.2 kmh 29.62 in1003.0 mb 0.00 in0.0 mm 0.00 in0.0 mm 0.00 in0.0 mm
02:00 PM 58.3°F14.6°C 29.3°F-1.5°C 33% 9.8 mph SE15.8 kmh SE 11.4 mph18.3 kmh 29.62 in1003.0 mb 0.00 in0.0 mm 0.00 in0.0 mm 0.00 in0.0 mm
02:15 PM 58.8°F14.9°C 29.8°F-1.2°C 33% 5.4 mph SE8.7 kmh SE 15.9 mph25.6 kmh 29.62 in1003.0 mb 0.00 in0.0 mm 0.00 in0.0 mm 0.00 in0.0 mm
02:30 PM 57.9°F14.4°C 29.7°F-1.3°C 34% 3.1 mph SE5.0 kmh SE 10.7 mph17.2 kmh 29.62 in1003.0 mb 0.00 in0.0 mm 0.00 in0.0 mm 0.00 in0.0 mm
02:45 PM 58.5°F14.7°C 30.2°F-1.0°C 34% 6.9 mph ESE11.1 kmh ESE 9.2 mph14.8 kmh 29.61 in1002.7 mb 0.00 in0.0 mm 0.00 in0.0 mm 0.00 in0.0 mm
03:00 PM 58.1°F14.5°C 29.9°F-1.2°C 34% 6.0 mph ESE9.7 kmh ESE 9.8 mph15.8 kmh 29.61 in1002.7 mb 0.00 in0.0 mm 0.00 in0.0 mm 0.00 in0.0 mm
03:15 PM 58.1°F14.5°C 31.3°F-0.4°C 36% 6.0 mph SE9.7 kmh SE 9.2 mph14.8 kmh 29.61 in1002.7 mb 0.00 in0.0 mm 0.00 in0.0 mm 0.00 in0.0 mm
03:30 PM 58.3°F14.6°C 31.5°F-0.3°C 36% 3.1 mph SE5.0 kmh SE 8.3 mph13.4 kmh 29.60 in1002.4 mb 0.00 in0.0 mm 0.00 in0.0 mm 0.00 in0.0 mm
03:45 PM 57.9°F14.4°C 31.1°F-0.5°C 36% 3.8 mph SE6.1 kmh SE 7.6 mph12.2 kmh 29.61 in1002.7 mb 0.00 in0.0 mm 0.00 in0.0 mm 0.00 in0.0 mm
04:00 PM 59.2°F15.1°C 31.6°F-0.2°C 35% 3.1 mph SSE5.0 kmh SSE 6.9 mph11.1 kmh 29.60 in1002.4 mb 0.00 in0.0 mm 0.00 in0.0 mm 0.00 in0.0 mm
04:15 PM 58.8°F14.9°C 31.2°F-0.4°C 35% 4.5 mph ESE7.2 kmh ESE 9.8 mph15.8 kmh 29.60 in1002.4 mb 0.00 in0.0 mm 0.00 in0.0 mm 0.00 in0.0 mm
04:30 PM 59.0°F15.0°C 30.7°F-0.7°C 34% 3.1 mph SE5.0 kmh SE 6.9 mph11.1 kmh 29.60 in1002.4 mb 0.00 in0.0 mm 0.00 in0.0 mm 0.00 in0.0 mm
04:45 PM 58.5°F14.7°C 30.9°F-0.6°C 35% 0.7 mph E1.1 kmh E 6.0 mph9.7 kmh 29.60 in1002.4 mb 0.00 in0.0 mm 0.00 in0.0 mm 0.00 in0.0 mm
05:00 PM 57.4°F14.1°C 36.8°F2.7°C 46% 7.6 mph NW12.2 kmh NW 11.4 mph18.3 kmh 29.61 in1002.7 mb 0.00 in0.0 mm 0.00 in0.0 mm 0.00 in0.0 mm
05:15 PM 55.6°F13.1°C 37.8°F3.2°C 51% 7.6 mph NW12.2 kmh NW 12.1 mph19.5 kmh 29.61 in1002.7 mb 0.00 in0.0 mm 0.00 in0.0 mm 0.00 in0.0 mm
05:30 PM 55.6°F13.1°C 38.2°F3.4°C 52% 6.9 mph W11.1 kmh W 10.7 mph17.2 kmh 29.62 in1003.0 mb 0.00 in0.0 mm 0.00 in0.0 mm 0.00 in0.0 mm
05:45 PM 54.7°F12.6°C 37.9°F3.3°C 53% 4.5 mph NW7.2 kmh NW 9.8 mph15.8 kmh 29.62 in1003.0 mb 0.00 in0.0 mm 0.00 in0.0 mm 0.00 in0.0 mm
06:00 PM 54.0°F12.2°C 38.2°F3.4°C 55% 6.0 mph W9.7 kmh W 11.4 mph18.3 kmh 29.62 in1003.0 mb 0.00 in0.0 mm 0.00 in0.0 mm 0.00 in0.0 mm
06:15 PM 53.1°F11.7°C 38.2°F3.4°C 57% 5.4 mph WNW8.7 kmh WNW 12.1 mph19.5 kmh 29.63 in1003.4 mb 0.00 in0.0 mm 0.00 in0.0 mm 0.00 in0.0 mm
06:30 PM 52.7°F11.5°C 39.6°F4.2°C 61% 3.1 mph WNW5.0 kmh WNW 13.0 mph20.9 kmh 29.63 in1003.4 mb 0.00 in0.0 mm 0.00 in0.0 mm 0.00 in0.0 mm
06:45 PM 52.0°F11.1°C 40.2°F4.6°C 64% 5.4 mph WNW8.7 kmh WNW 9.2 mph14.8 kmh 29.64 in1003.7 mb 0.00 in0.0 mm 0.00 in0.0 mm 0.00 in0.0 mm
07:00 PM 51.4°F10.8°C 40.5°F4.7°C 66% 6.0 mph WNW9.7 kmh WNW 7.6 mph12.2 kmh 29.64 in1003.7 mb 0.00 in0.0 mm 0.00 in0.0 mm 0.00 in0.0 mm
07:15 PM 51.1°F10.6°C 40.5°F4.7°C 67% 5.4 mph W8.7 kmh W 9.8 mph15.8 kmh 29.64 in1003.7 mb 0.00 in0.0 mm 0.00 in0.0 mm 0.00 in0.0 mm
07:30 PM 51.1°F10.6°C 40.1°F4.5°C 66% 5.4 mph WNW8.7 kmh WNW 9.8 mph15.8 kmh 29.64 in1003.7 mb 0.00 in0.0 mm 0.00 in0.0 mm 0.00 in0.0 mm
07:45 PM 50.7°F10.4°C 39.4°F4.1°C 65% 6.0 mph NW9.7 kmh NW 7.6 mph12.2 kmh 29.65 in1004.1 mb 0.00 in0.0 mm 0.00 in0.0 mm 0.00 in0.0 mm
08:00 PM 50.4°F10.2°C 39.4°F4.1°C 66% 3.1 mph NW5.0 kmh NW 7.6 mph12.2 kmh 29.65 in1004.1 mb 0.00 in0.0 mm 0.00 in0.0 mm 0.00 in0.0 mm
08:15 PM 50.4°F10.2°C 39.8°F4.3°C 67% 6.0 mph W9.7 kmh W 7.6 mph12.2 kmh 29.65 in1004.1 mb 0.00 in0.0 mm 0.00 in0.0 mm 0.00 in0.0 mm
08:30 PM 50.4°F10.2°C 39.4°F4.1°C 66% 3.8 mph WNW6.1 kmh WNW 6.9 mph11.1 kmh 29.65 in1004.1 mb 0.00 in0.0 mm 0.00 in0.0 mm 0.00 in0.0 mm
08:45 PM 50.2°F10.1°C 39.3°F4.1°C 66% 2.2 mph WNW3.5 kmh WNW 8.3 mph13.4 kmh 29.65 in1004.1 mb 0.00 in0.0 mm 0.00 in0.0 mm 0.00 in0.0 mm
09:00 PM 50.0°F10.0°C 39.1°F3.9°C 66% 3.1 mph NW5.0 kmh NW 4.5 mph7.2 kmh 29.66 in1004.4 mb 0.00 in0.0 mm 0.00 in0.0 mm 0.00 in0.0 mm
09:15 PM 50.2°F10.1°C 38.9°F3.8°C 65% 3.1 mph NW5.0 kmh NW 7.6 mph12.2 kmh 29.67 in1004.7 mb 0.00 in0.0 mm 0.00 in0.0 mm 0.00 in0.0 mm
09:30 PM 49.8°F9.9°C 38.9°F3.8°C 66% 3.8 mph NW6.1 kmh NW 8.3 mph13.4 kmh 29.66 in1004.4 mb 0.00 in0.0 mm 0.00 in0.0 mm 0.00 in0.0 mm
09:45 PM 49.8°F9.9°C 38.5°F3.6°C 65% 1.6 mph SE2.6 kmh SE 3.8 mph6.1 kmh 29.67 in1004.7 mb 0.00 in0.0 mm 0.00 in0.0 mm 0.00 in0.0 mm
10:00 PM 49.1°F9.5°C 39.4°F4.1°C 69% 3.8 mph NW6.1 kmh NW 6.9 mph11.1 kmh 29.68 in1005.1 mb 0.00 in0.0 mm 0.00 in0.0 mm 0.00 in0.0 mm
10:15 PM 48.2°F9.0°C 38.9°F3.8°C 70% 3.1 mph W5.0 kmh W 3.8 mph6.1 kmh 29.68 in1005.1 mb 0.00 in0.0 mm 0.00 in0.0 mm 0.00 in0.0 mm
10:30 PM 47.7°F8.7°C 38.4°F3.6°C 70% 1.6 mph NW2.6 kmh NW 6.0 mph9.7 kmh 29.68 in1005.1 mb 0.00 in0.0 mm 0.00 in0.0 mm 0.00 in0.0 mm
10:45 PM 47.5°F8.6°C 38.2°F3.4°C 70% 1.6 mph NW2.6 kmh NW 5.4 mph8.7 kmh 29.68 in1005.1 mb 0.00 in0.0 mm 0.00 in0.0 mm 0.00 in0.0 mm
11:00 PM 47.3°F8.5°C 38.0°F3.3°C 70% 1.6 mph SE2.6 kmh SE 3.1 mph5.0 kmh 29.68 in1005.1 mb 0.00 in0.0 mm 0.00 in0.0 mm 0.00 in0.0 mm
11:15 PM 46.8°F8.2°C 37.5°F3.1°C 70% 0.7 mph S1.1 kmh S 3.1 mph5.0 kmh 29.68 in1005.1 mb 0.00 in0.0 mm 0.00 in0.0 mm 0.00 in0.0 mm
11:30 PM 46.6°F8.1°C 37.3°F2.9°C 70% 1.6 mph WSW2.6 kmh WSW 3.8 mph6.1 kmh 29.68 in1005.1 mb 0.00 in0.0 mm 0.00 in0.0 mm 0.00 in0.0 mm
11:45 PM 46.4°F8.0°C 37.5°F3.1°C 71% Calm Calm 2.2 mph3.5 kmh 29.68 in1005.1 mb 0.00 in0.0 mm 0.00 in0.0 mm 0.00 in0.0 mm